createdAt,value
2019-05-23T00:02:02.717Z,14.40
2019-05-23T00:04:29.339Z,14.50
2019-05-23T00:06:56.013Z,14.60
2019-05-23T00:09:22.631Z,14.50
2019-05-23T00:11:49.259Z,14.60
2019-05-23T00:14:15.848Z,14.10
2019-05-23T00:16:42.548Z,14.50
2019-05-23T00:19:09.256Z,14.80
2019-05-23T00:24:11.373Z,14.80
2019-05-23T00:26:38.152Z,14.60
2019-05-23T00:29:10.040Z,14.60
2019-05-23T00:31:33.235Z,14.50
2019-05-23T00:33:59.889Z,14.80
2019-05-23T00:36:26.551Z,14.70
2019-05-23T00:38:53.205Z,14.60
2019-05-23T00:41:19.799Z,14.70
2019-05-23T00:43:46.584Z,14.70
2019-05-23T00:46:13.198Z,14.40
2019-05-23T00:48:39.783Z,14.60
2019-05-23T00:51:06.562Z,14.80
2019-05-23T00:53:33.235Z,14.80
2019-05-23T00:55:59.866Z,14.50
2019-05-23T00:58:26.565Z,14.50
2019-05-23T01:00:54.997Z,14.40
2019-05-23T01:03:21.595Z,14.40
2019-05-23T01:05:48.236Z,14.60
2019-05-23T01:08:14.821Z,14.80
2019-05-23T01:10:41.424Z,14.70
2019-05-23T01:13:08.144Z,14.40
2019-05-23T01:15:34.969Z,14.80
2019-05-23T01:18:01.573Z,14.80
2019-05-23T01:20:29.490Z,14.60
2019-05-23T01:22:56.109Z,14.80
2019-05-23T01:25:22.936Z,14.90
2019-05-23T01:27:51.919Z,14.90
2019-05-23T01:30:18.553Z,14.90
2019-05-23T01:32:48.981Z,14.80
2019-05-23T01:35:15.619Z,14.30
2019-05-23T01:37:42.225Z,14.70
2019-05-23T01:40:11.556Z,14.90
2019-05-23T01:42:40.330Z,14.80
2019-05-23T01:45:09.141Z,14.60
2019-05-23T01:47:37.893Z,14.30
2019-05-23T01:50:04.647Z,14.60
2019-05-23T01:52:31.253Z,14.60
2019-05-23T01:54:57.872Z,14.20
2019-05-23T01:57:25.485Z,14.20
2019-05-23T02:00:08.363Z,14.40
2019-05-23T02:02:20.451Z,14.50
2019-05-23T02:04:47.130Z,14.50
2019-05-23T02:07:13.724Z,14.60
2019-05-23T02:09:40.340Z,14.20
2019-05-23T02:12:09.457Z,14.10
2019-05-23T02:14:36.040Z,14.30
2019-05-23T02:17:02.909Z,14.30
2019-05-23T02:19:29.487Z,14.20
2019-05-23T02:21:57.284Z,14.40
2019-05-23T02:24:23.879Z,14.20
2019-05-23T02:26:50.533Z,14.40
2019-05-23T02:29:20.788Z,14.30
2019-05-23T02:31:47.408Z,14.20
2019-05-23T02:34:15.472Z,14.40
2019-05-23T02:36:42.145Z,14.30
2019-05-23T02:39:12.469Z,14.10
2019-05-23T02:41:39.125Z,14.30
2019-05-23T02:44:08.245Z,14.60
2019-05-23T02:46:38.338Z,14.80
2019-05-23T02:49:07.072Z,14.90
2019-05-23T02:51:33.887Z,15.00
2019-05-23T02:54:01.055Z,14.60
2019-05-23T02:56:27.682Z,14.10
2019-05-23T02:58:54.366Z,14.40
2019-05-23T03:01:21.014Z,14.40
2019-05-23T03:03:47.748Z,14.40
2019-05-23T03:06:14.486Z,14.70
2019-05-23T03:08:41.071Z,14.50
2019-05-23T03:11:07.746Z,14.50
2019-05-23T03:13:34.335Z,14.70
2019-05-23T03:16:00.918Z,14.30
2019-05-23T03:18:27.550Z,14.30
2019-05-23T03:20:54.138Z,14.20
2019-05-23T03:23:20.731Z,14.00
2019-05-23T03:25:47.393Z,13.70
2019-05-23T03:28:14.050Z,13.60
2019-05-23T03:30:40.659Z,13.60
2019-05-23T03:33:07.288Z,13.60
2019-05-23T03:35:33.872Z,13.90
2019-05-23T03:38:03.323Z,14.20
2019-05-23T03:40:30.011Z,14.20
2019-05-23T03:42:58.729Z,14.40
2019-05-23T03:45:25.302Z,14.60
2019-05-23T03:47:51.929Z,15.00
2019-05-23T03:50:19.524Z,14.70
2019-05-23T03:52:46.162Z,14.10
2019-05-23T03:55:12.782Z,13.60
2019-05-23T03:57:39.487Z,13.90
2019-05-23T04:00:08.193Z,14.10
2019-05-23T04:02:34.894Z,13.90
2019-05-23T04:05:01.524Z,14.20
2019-05-23T04:07:28.217Z,14.40
2019-05-23T04:09:55.477Z,14.60
2019-05-23T04:12:22.265Z,14.70
2019-05-23T04:14:48.876Z,14.60
2019-05-23T04:17:15.529Z,14.60
2019-05-23T04:19:42.182Z,14.40
2019-05-23T04:22:08.756Z,14.30
2019-05-23T04:24:35.438Z,14.50
2019-05-23T04:27:02.023Z,14.50
2019-05-23T04:29:29.415Z,14.70
2019-05-23T04:32:07.020Z,14.40
2019-05-23T04:34:24.435Z,14.60
2019-05-23T04:36:51.036Z,14.80
2019-05-23T04:39:21.589Z,14.60
2019-05-23T04:41:50.235Z,14.60
2019-05-23T04:44:16.566Z,14.60
2019-05-23T04:46:43.222Z,14.90
2019-05-23T04:49:09.808Z,15.10
2019-05-23T04:51:36.424Z,15.20
2019-05-23T04:54:03.103Z,14.90
2019-05-23T04:56:29.686Z,15.00
2019-05-23T04:58:56.311Z,15.00
2019-05-23T05:01:22.976Z,15.10
2019-05-23T05:03:49.571Z,15.00
2019-05-23T05:06:16.251Z,14.90
2019-05-23T05:08:45.010Z,14.80
2019-05-23T05:11:11.624Z,15.10
2019-05-23T05:13:38.242Z,14.90
2019-05-23T05:16:04.873Z,15.10
2019-05-23T05:18:31.473Z,15.10
2019-05-23T05:20:58.213Z,15.30
2019-05-23T05:23:24.834Z,15.30
2019-05-23T05:25:51.416Z,15.50
2019-05-23T05:28:18.741Z,15.50
2019-05-23T05:30:45.370Z,15.20
2019-05-23T05:33:12.023Z,15.20
2019-05-23T05:35:38.592Z,15.30
2019-05-23T05:38:05.323Z,15.40
2019-05-23T05:40:31.931Z,15.60
2019-05-23T05:42:58.603Z,15.50
2019-05-23T05:45:25.258Z,15.40
2019-05-23T05:47:51.876Z,15.60
2019-05-23T05:50:18.490Z,15.50
2019-05-23T05:52:45.107Z,15.70
2019-05-23T05:57:47.451Z,15.80
2019-05-23T06:00:14.479Z,15.80
2019-05-23T06:02:41.101Z,15.60
2019-05-23T06:05:07.794Z,15.30
2019-05-23T06:07:39.336Z,15.10
2019-05-23T06:10:05.978Z,15.20
2019-05-23T06:12:32.567Z,15.10
2019-05-23T06:15:00.980Z,14.90
2019-05-23T06:17:27.608Z,15.20
2019-05-23T06:19:54.264Z,15.50
2019-05-23T06:22:21.113Z,15.60
2019-05-23T06:24:52.478Z,15.80
2019-05-23T06:27:16.219Z,15.80
2019-05-23T06:29:43.113Z,15.80
2019-05-23T06:32:09.830Z,15.50
2019-05-23T06:34:38.748Z,15.20
2019-05-23T06:37:07.292Z,15.20
2019-05-23T06:39:36.293Z,15.40
2019-05-23T06:42:07.241Z,15.60
2019-05-23T06:44:34.924Z,15.80
2019-05-23T06:47:04.708Z,16.00
2019-05-23T06:49:32.325Z,15.80
2019-05-23T06:51:59.901Z,15.70
2019-05-23T06:54:28.972Z,15.90
2019-05-23T06:56:56.934Z,15.90
2019-05-23T06:59:26.929Z,16.00
2019-05-23T07:01:54.963Z,16.30
2019-05-23T07:04:21.800Z,16.30
2019-05-23T07:09:26.924Z,15.80
2019-05-23T07:11:56.580Z,16.40
2019-05-23T07:19:39.189Z,16.60
2019-05-23T07:22:06.846Z,16.70
2019-05-23T07:30:00.166Z,16.30
2019-05-23T07:32:27.721Z,15.90
2019-05-23T07:34:55.345Z,15.70
2019-05-23T07:37:24.506Z,16.00
2019-05-23T07:39:52.164Z,16.30
2019-05-23T07:42:18.784Z,16.60
2019-05-23T07:44:49.006Z,16.70
2019-05-23T07:47:19.254Z,17.20
2019-05-23T07:49:49.139Z,17.60
2019-05-23T07:52:18.976Z,17.10
2019-05-23T07:54:46.657Z,17.50
2019-05-23T07:57:13.573Z,17.90
2019-05-23T07:59:43.406Z,17.50
2019-05-23T08:02:10.083Z,17.30
2019-05-23T08:07:14.713Z,17.80
2019-05-23T08:09:43.680Z,18.30
2019-05-23T08:12:11.448Z,18.40
2019-05-23T08:35:40.589Z,18.50
2019-05-23T08:38:09.188Z,18.00
2019-05-23T08:40:37.962Z,18.50
2019-05-23T08:43:04.851Z,18.60
2019-05-23T08:45:34.270Z,18.50
2019-05-23T08:48:06.076Z,18.30
2019-05-23T08:50:38.217Z,18.50
2019-05-23T08:53:04.000Z,18.70
2019-05-23T08:58:09.393Z,19.30
2019-05-23T09:00:36.106Z,19.40
2019-05-23T09:03:05.347Z,19.30
2019-05-23T09:05:32.501Z,19.50
2019-05-23T09:07:59.228Z,19.10
2019-05-23T09:10:29.737Z,19.20
2019-05-23T09:12:56.355Z,18.60
2019-05-23T09:15:22.940Z,18.50
2019-05-23T09:17:54.042Z,18.60
2019-05-23T09:20:21.102Z,18.80
2019-05-23T09:22:55.068Z,19.10
2019-05-23T09:25:32.818Z,19.00
2019-05-23T09:49:11.126Z,19.40
2019-05-23T09:51:37.175Z,19.90
2019-05-23T09:54:06.906Z,20.40
2019-05-23T09:56:33.448Z,20.50
2019-05-23T10:19:57.224Z,21.80
2019-05-23T10:22:23.730Z,21.30
2019-05-23T10:24:52.169Z,20.80
2019-05-23T10:27:18.779Z,21.20
2019-05-23T10:29:46.339Z,21.20
2019-05-23T10:32:16.474Z,21.40
2019-05-23T10:34:43.073Z,21.60
2019-05-23T10:37:10.519Z,21.60
2019-05-23T10:39:39.901Z,21.60
2019-05-23T10:42:06.620Z,21.20
2019-05-23T10:44:33.113Z,21.40
2019-05-23T10:47:01.994Z,21.60
2019-05-23T10:49:28.587Z,21.70
2019-05-23T10:51:55.152Z,21.60
2019-05-23T10:54:23.700Z,21.50
2019-05-23T10:56:50.242Z,21.50
2019-05-23T10:59:16.820Z,21.40
2019-05-23T11:01:45.808Z,21.50
2019-05-23T11:04:12.371Z,21.90
2019-05-23T11:06:38.911Z,22.30
2019-05-23T11:09:07.599Z,22.40
2019-05-23T11:11:34.129Z,21.80
2019-05-23T11:14:00.775Z,21.30
2019-05-23T11:16:29.899Z,21.10
2019-05-23T11:18:56.485Z,21.30
2019-05-23T11:21:23.047Z,20.80
2019-05-23T11:23:51.727Z,21.10
2019-05-23T11:26:18.258Z,21.60
2019-05-23T11:28:45.237Z,21.70
2019-05-23T11:31:14.698Z,21.50
2019-05-23T11:33:42.181Z,21.80
2019-05-23T11:36:09.133Z,22.20
2019-05-23T11:38:38.128Z,22.20
2019-05-23T11:41:05.067Z,22.20
2019-05-23T11:43:32.218Z,22.00
2019-05-23T11:46:02.510Z,22.20
2019-05-23T11:48:29.074Z,22.50
2019-05-23T11:50:55.622Z,22.00
2019-05-23T11:53:25.013Z,21.50
2019-05-23T11:55:54.467Z,22.20
2019-05-23T11:58:20.217Z,21.90
2019-05-23T12:00:48.882Z,21.30
2019-05-23T12:03:15.393Z,22.00
2019-05-23T12:05:41.973Z,22.00
2019-05-23T12:08:10.275Z,22.00
2019-05-23T12:10:36.856Z,22.30
2019-05-23T12:13:03.404Z,22.60
2019-05-23T20:22:55.654Z,17.70
2019-05-23T20:25:26.284Z,17.40
2019-05-23T20:27:58.055Z,17.30
2019-05-23T20:30:27.238Z,17.70
2019-05-23T20:35:45.283Z,17.30
2019-05-23T20:43:24.829Z,17.60
2019-05-23T20:45:50.913Z,17.70
2019-05-23T20:48:23.605Z,17.80
2019-05-23T20:50:53.414Z,17.90
2019-05-23T20:53:22.097Z,17.80
2019-05-23T20:55:48.911Z,17.80
2019-05-23T20:58:18.441Z,17.40
2019-05-23T21:00:46.238Z,17.20
2019-05-23T21:03:12.834Z,17.60
2019-05-23T21:05:46.282Z,17.40
2019-05-23T21:08:17.085Z,17.60
2019-05-23T21:10:45.269Z,17.50
2019-05-23T21:23:33.467Z,17.10
2019-05-23T21:26:01.076Z,17.00
2019-05-23T21:28:30.023Z,17.20
2019-05-23T21:36:08.525Z,17.30
2019-05-23T21:38:35.385Z,16.70
2019-05-23T21:41:03.311Z,15.90
2019-05-23T21:46:08.605Z,16.20
2019-05-23T21:48:41.488Z,16.50
2019-05-23T21:53:47.413Z,16.70
2019-05-23T21:56:14.034Z,16.60
2019-05-23T21:58:45.319Z,16.40
2019-05-23T22:01:14.923Z,16.50
2019-05-23T22:03:41.295Z,16.30
2019-05-23T22:08:45.052Z,16.50
2019-05-23T22:11:16.003Z,16.60
2019-05-23T22:16:19.627Z,16.80
2019-05-23T22:18:47.261Z,16.90
2019-05-23T22:21:19.558Z,16.60
2019-05-23T22:23:46.152Z,16.50
2019-05-23T22:26:17.367Z,16.20
2019-05-23T22:41:33.556Z,16.30
2019-05-23T22:44:07.212Z,16.40
2019-05-23T22:46:44.730Z,16.20
2019-05-23T22:51:56.933Z,16.10
2019-05-23T22:57:03.083Z,16.10
2019-05-23T22:59:32.987Z,16.00
2019-05-23T23:02:00.378Z,16.30
2019-05-23T23:17:18.278Z,16.20
2019-05-23T23:19:49.198Z,16.30
2019-05-23T23:22:21.072Z,16.20
2019-05-23T23:24:48.709Z,16.20
2019-05-23T23:27:18.294Z,16.30
2019-05-23T23:40:03.996Z,16.60
2019-05-23T23:42:31.302Z,16.60
2019-05-23T23:47:37.054Z,16.40
2019-05-23T23:50:04.692Z,16.40
2019-05-23T23:55:17.882Z,16.00
2019-05-23T23:57:45.560Z,16.00
